Airfield :
LOGIN :

Register | Disclaimer

   EN    FR    IT 

 










Legend :    VFR   Marginal VFR   IFR   Intensive IFR   Very Intensive IFR
Visi :
Ceiling :
>= 8 km
>= 3000ft
5 to 8 km
1000 to 3000 ft
1500m to 5 km
500 to 1000 ft
800 to 1500m
200 to 500 ft
< 800m
< 200 ft
Symbols :   Thunderstorms  Fog  Heavy snow  Heavy precipitations  Wind > 20 kt
SIGMETs :     Misc.  Thunderstorms  Icing  Turbulence  Mountain Waves  Volcanic Ashes






- Airport Elevation : 142 ft
- IATA code : ALC


LEAL - Alicante

CURRENT METAR :
  • 190630Z 00000KT CAVOK 26/19 Q1018 NOSIG

EXPIRED METARs :
  • 190600Z VRB01KT CAVOK 23/20 Q1017 NOSIG
  • 190530Z 00000KT CAVOK 22/19 Q1017 NOSIG
  • 190500Z VRB01KT CAVOK 23/19 Q1017 NOSIG
  • 190430Z 28003KT 250V320 CAVOK 23/19 Q1017 NOSIG
  • 190400Z VRB01KT CAVOK 23/20 Q1016 NOSIG
  • 190330Z 27004KT CAVOK 23/20 Q1017 NOSIG
  • 190300Z 24004KT CAVOK 23/20 Q1017 NOSIG
  • 190230Z 00000KT CAVOK 24/21 Q1016 NOSIG
  • 190200Z VRB02KT CAVOK 24/21 Q1017 NOSIG

TAF TAF LEAL
Valid from the 19 at 06:00 until the 20 at 06:00 UTC


190500Z 1906/2006 VRB03KT 9999 FEW040 TX33/1913Z TN23/1906Z
BECMG 1912/1914 13010KT
BECMG 1918/1920 VRB04KT
PROB30
TEMPO 2000/2006 4000 BR BKN010



MET'MAP, your aeronautical weather chart ! - Copyright ORBIFLY December 2007 - Disclaimer

ORBIFLY MET'MAP TEAM :

Programming & Development : Alexandra Zaïnal
Original concept : Baudouin d'Aumeries
Technical & hardware support : Manuel Goepfert
Assistance : Marc-Olivier Méhu




SOURCES & CREDITS :

   NOAA